createdAt,value
2017-04-19T00:00:16.474Z,25.7
2017-04-19T00:01:16.531Z,25.67
2017-04-19T00:02:16.749Z,25.64
2017-04-19T00:03:16.541Z,25.72
2017-04-19T00:04:16.505Z,25.62
2017-04-19T00:05:16.195Z,25.75
2017-04-19T00:06:16.517Z,25.76
2017-04-19T00:07:16.408Z,25.69
2017-04-19T00:08:16.580Z,25.75
2017-04-19T00:09:16.537Z,25.77
2017-04-19T00:10:16.234Z,25.65
2017-04-19T00:11:16.551Z,25.69
2017-04-19T00:12:16.561Z,25.69
2017-04-19T00:13:16.564Z,25.82
2017-04-19T00:14:16.573Z,25.7
2017-04-19T00:15:16.719Z,25.72
2017-04-19T00:16:16.276Z,25.76
2017-04-19T00:17:16.641Z,25.77
2017-04-19T00:18:16.650Z,25.73
2017-04-19T00:19:16.295Z,25.75
2017-04-19T00:20:16.355Z,25.73
2017-04-19T00:21:16.368Z,25.76
2017-04-19T00:22:16.369Z,25.79
2017-04-19T00:23:16.690Z,25.67
2017-04-19T00:24:16.693Z,25.73
2017-04-19T00:25:16.704Z,25.65
2017-04-19T00:26:16.706Z,25.6
2017-04-19T00:27:16.400Z,25.69
2017-04-19T00:28:16.360Z,25.7
2017-04-19T00:29:16.676Z,25.69
2017-04-19T00:30:16.771Z,25.73
2017-04-19T00:31:17.095Z,25.69
2017-04-19T00:32:16.702Z,25.7
2017-04-19T00:33:16.452Z,25.73
2017-04-19T00:34:16.717Z,25.62
2017-04-19T00:35:16.723Z,25.58
2017-04-19T00:36:16.779Z,25.67
2017-04-19T00:37:16.734Z,25.62
2017-04-19T00:38:16.793Z,25.62
2017-04-19T00:39:16.752Z,25.67
2017-04-19T00:40:16.444Z,25.6
2017-04-19T00:41:16.819Z,25.62
2017-04-19T00:42:16.790Z,25.58
2017-04-19T00:43:16.469Z,25.65
2017-04-19T00:44:16.834Z,25.67
2017-04-19T00:45:16.792Z,25.65
2017-04-19T00:46:16.802Z,25.6
2017-04-19T00:47:16.861Z,25.67
2017-04-19T00:48:16.879Z,25.62
2017-04-19T00:49:16.825Z,25.67
2017-04-19T00:50:16.833Z,25.72
2017-04-19T00:51:16.833Z,25.54
2017-04-19T00:52:16.944Z,25.7
2017-04-19T00:53:16.902Z,25.67
2017-04-19T00:54:16.860Z,25.62
2017-04-19T00:55:16.553Z,25.57
2017-04-19T00:56:16.875Z,25.58
2017-04-19T00:57:16.252Z,25.69
2017-04-19T00:58:16.888Z,25.67
2017-04-19T00:59:16.894Z,25.61
2017-04-19T01:00:16.901Z,25.64
2017-04-19T01:01:16.911Z,25.67
2017-04-19T01:02:16.601Z,25.67
2017-04-19T01:03:16.926Z,25.65
2017-04-19T01:04:16.666Z,25.64
2017-04-19T01:05:17.036Z,25.72
2017-04-19T01:06:17.003Z,25.57
2017-04-19T01:07:16.949Z,25.67
2017-04-19T01:08:16.696Z,25.61
2017-04-19T01:09:16.752Z,25.7
2017-04-19T01:10:16.344Z,25.6
2017-04-19T01:11:17.026Z,25.6
2017-04-19T01:12:16.986Z,25.69
2017-04-19T01:13:16.996Z,25.67
2017-04-19T01:14:17.004Z,25.7
2017-04-19T01:15:17.007Z,25.73
2017-04-19T01:16:17.064Z,25.58
2017-04-19T01:17:17.076Z,25.65
2017-04-19T01:18:17.082Z,25.57
2017-04-19T01:19:17.034Z,25.65
2017-04-19T01:20:16.731Z,25.7
2017-04-19T01:21:16.785Z,25.65
2017-04-19T01:22:17.059Z,25.72
2017-04-19T01:23:17.064Z,25.67
2017-04-19T01:24:17.117Z,25.69
2017-04-19T01:25:17.816Z,25.73
2017-04-19T01:26:17.088Z,25.7
2017-04-19T01:27:17.096Z,25.67
2017-04-19T01:28:16.842Z,25.67
2017-04-19T01:29:16.795Z,25.72
2017-04-19T01:30:16.848Z,25.7
2017-04-19T01:31:17.168Z,25.7
2017-04-19T01:32:17.177Z,25.64
2017-04-19T01:33:17.186Z,25.69
2017-04-19T01:34:17.197Z,25.69
2017-04-19T01:35:17.147Z,25.73
2017-04-19T01:36:16.839Z,25.7
2017-04-19T01:37:17.164Z,25.73
2017-04-19T01:38:16.856Z,25.67
2017-04-19T01:39:17.271Z,25.57
2017-04-19T01:40:17.184Z,25.58
2017-04-19T01:41:17.192Z,25.61
2017-04-19T01:42:17.195Z,25.73
2017-04-19T01:43:17.208Z,25.73
2017-04-19T01:44:17.218Z,25.7
2017-04-19T01:45:16.905Z,25.69
2017-04-19T01:46:17.436Z,25.69
2017-04-19T01:47:16.968Z,25.69
2017-04-19T01:48:17.293Z,25.65
2017-04-19T01:49:17.828Z,25.76
2017-04-19T01:50:16.939Z,25.73
2017-04-19T01:51:17.261Z,25.67
2017-04-19T01:52:17.266Z,25.72
2017-04-19T01:53:16.752Z,25.69
2017-04-19T01:54:17.281Z,25.69
2017-04-19T01:55:17.123Z,25.69
2017-04-19T01:56:17.345Z,25.7
2017-04-19T01:57:18.002Z,25.79
2017-04-19T01:58:17.362Z,25.77
2017-04-19T01:59:17.315Z,25.75
2017-04-19T02:00:17.112Z,25.67
2017-04-19T02:01:16.706Z,25.77
2017-04-19T02:02:17.032Z,25.8
2017-04-19T02:03:17.339Z,25.73
2017-04-19T02:04:17.035Z,25.73
2017-04-19T02:05:17.030Z,25.67
2017-04-19T02:06:17.357Z,25.67
2017-04-19T02:07:17.369Z,25.76
2017-04-19T02:08:16.805Z,25.72
2017-04-19T02:09:17.425Z,25.79
2017-04-19T02:10:17.389Z,25.77
2017-04-19T02:11:17.402Z,25.82
2017-04-19T02:12:17.456Z,25.79
2017-04-19T02:13:17.160Z,25.8
2017-04-19T02:14:17.160Z,25.8
2017-04-19T02:15:17.168Z,25.77
2017-04-19T02:16:17.434Z,25.77
2017-04-19T02:17:17.498Z,25.87
2017-04-19T02:18:17.139Z,25.77
2017-04-19T02:19:17.145Z,25.82
2017-04-19T02:20:17.147Z,25.82
2017-04-19T02:21:17.475Z,25.8
2017-04-19T02:22:17.168Z,25.73
2017-04-19T02:23:17.327Z,25.73
2017-04-19T02:24:17.493Z,25.73
2017-04-19T02:25:17.504Z,25.75
2017-04-19T02:26:17.193Z,25.76
2017-04-19T02:27:17.513Z,25.76
2017-04-19T02:28:17.521Z,25.79
2017-04-19T02:29:17.575Z,25.76
2017-04-19T02:30:17.536Z,25.77
2017-04-19T02:31:17.538Z,25.87
2017-04-19T02:32:17.285Z,25.88
2017-04-19T02:33:17.612Z,25.88
2017-04-19T02:34:17.564Z,25.8
2017-04-19T02:35:17.623Z,25.91
2017-04-19T02:36:17.580Z,25.85
2017-04-19T02:37:17.583Z,25.87
2017-04-19T02:38:17.596Z,25.85
2017-04-19T02:39:17.285Z,25.88
2017-04-19T02:40:16.979Z,25.83
2017-04-19T02:41:17.739Z,25.82
2017-04-19T02:42:17.772Z,25.91
2017-04-19T02:43:17.630Z,25.94
2017-04-19T02:44:17.688Z,25.87
2017-04-19T02:45:17.642Z,25.94
2017-04-19T02:46:17.338Z,25.91
2017-04-19T02:47:17.344Z,25.97
2017-04-19T02:48:17.402Z,25.92
2017-04-19T02:49:17.774Z,25.87
2017-04-19T02:50:17.366Z,25.88
2017-04-19T02:51:17.731Z,25.92
2017-04-19T02:52:17.378Z,25.83
2017-04-19T02:53:17.074Z,25.87
2017-04-19T02:54:17.706Z,25.88
2017-04-19T02:55:17.727Z,25.88
2017-04-19T02:56:17.772Z,25.9
2017-04-19T02:57:17.777Z,25.83
2017-04-19T02:58:17.735Z,25.95
2017-04-19T02:59:17.940Z,26.01
2017-04-19T03:00:17.849Z,26.06
2017-04-19T03:01:17.800Z,25.99
2017-04-19T03:02:17.757Z,25.98
2017-04-19T03:03:17.770Z,26.06
2017-04-19T03:04:17.463Z,25.97
2017-04-19T03:05:17.780Z,25.99
2017-04-19T03:06:17.789Z,25.98
2017-04-19T03:07:17.799Z,26.06
2017-04-19T03:08:17.803Z,26.02
2017-04-19T03:09:17.822Z,25.99
2017-04-19T03:10:17.867Z,25.97
2017-04-19T03:11:17.561Z,26.05
2017-04-19T03:12:18.971Z,25.92
2017-04-19T03:13:17.529Z,25.94
2017-04-19T03:14:17.588Z,26.06
2017-04-19T03:15:17.904Z,26.01
2017-04-19T03:16:17.862Z,25.99
2017-04-19T03:17:17.553Z,26.01
2017-04-19T03:18:17.927Z,25.97
2017-04-19T03:19:17.936Z,26.01
2017-04-19T03:20:17.888Z,25.97
2017-04-19T03:21:17.894Z,26.01
2017-04-19T03:22:17.908Z,26.09
2017-04-19T03:23:17.912Z,25.99
2017-04-19T03:24:17.916Z,26.23
2017-04-19T03:25:18.222Z,26.15
2017-04-19T03:26:17.932Z,26.13
2017-04-19T03:27:17.997Z,26.1
2017-04-19T03:28:17.943Z,26.12
2017-04-19T03:29:18.000Z,26.09
2017-04-19T03:30:17.647Z,26.05
2017-04-19T03:31:18.015Z,26.02
2017-04-19T03:32:17.659Z,26.07
2017-04-19T03:33:17.983Z,25.95
2017-04-19T03:34:18.990Z,26.01
2017-04-19T03:35:17.996Z,26.06
2017-04-19T03:36:18.050Z,26.1
2017-04-19T03:37:17.705Z,26.1
2017-04-19T03:38:17.697Z,26.05
2017-04-19T03:39:18.089Z,26.07
2017-04-19T03:40:18.029Z,26.09
2017-04-19T03:41:18.070Z,26.07
2017-04-19T03:42:17.731Z,26.07
2017-04-19T03:43:18.050Z,26.13
2017-04-19T03:44:18.987Z,26.17
2017-04-19T03:45:17.437Z,26.13
2017-04-19T03:46:17.757Z,26.2
2017-04-19T03:47:18.127Z,26.2
2017-04-19T03:48:17.774Z,26.12
2017-04-19T03:49:18.156Z,26.13
2017-04-19T03:50:18.100Z,26.15
2017-04-19T03:51:18.107Z,26.1
2017-04-19T03:52:18.164Z,26.1
2017-04-19T03:53:18.122Z,26.15
2017-04-19T03:54:18.183Z,26.12
2017-04-19T03:55:18.188Z,26.13
2017-04-19T03:56:18.144Z,26.18
2017-04-19T03:57:18.150Z,26.13
2017-04-19T03:58:18.506Z,26.15
2017-04-19T03:59:18.168Z,26.21
2017-04-19T04:00:18.171Z,26.17
2017-04-19T04:01:18.180Z,26.13
2017-04-19T04:02:18.500Z,26.2
2017-04-19T04:03:17.937Z,26.07
2017-04-19T04:04:17.886Z,26.17
2017-04-19T04:05:17.911Z,26.2
2017-04-19T04:06:18.219Z,26.18
2017-04-19T04:07:17.913Z,26.17
2017-04-19T04:08:18.235Z,26.23
2017-04-19T04:09:18.233Z,26.2
2017-04-19T04:10:18.242Z,26.23
2017-04-19T04:11:17.984Z,26.12
2017-04-19T04:12:18.257Z,26.28
2017-04-19T04:13:18.265Z,26.35
2017-04-19T04:14:18.289Z,26.29
2017-04-19T04:15:17.965Z,26.28
2017-04-19T04:16:18.284Z,26.3
2017-04-19T04:17:18.345Z,26.26
2017-04-19T04:18:18.348Z,26.3
2017-04-19T04:19:18.307Z,26.2
2017-04-19T04:20:18.316Z,26.32
2017-04-19T04:21:18.536Z,26.36
2017-04-19T04:22:18.016Z,26.36
2017-04-19T04:23:18.437Z,26.37
2017-04-19T04:24:17.727Z,26.33
2017-04-19T04:25:18.348Z,26.36
2017-04-19T04:26:18.357Z,26.37
2017-04-19T04:27:18.415Z,26.33
2017-04-19T04:28:18.059Z,26.37
2017-04-19T04:29:18.115Z,26.35
2017-04-19T04:30:18.541Z,26.36
2017-04-19T04:31:18.128Z,26.36
2017-04-19T04:32:18.402Z,26.43
2017-04-19T04:33:18.407Z,26.35
2017-04-19T04:34:18.515Z,26.36
2017-04-19T04:35:18.423Z,26.39
2017-04-19T04:36:18.476Z,26.39
2017-04-19T04:37:18.126Z,26.43
2017-04-19T04:38:17.866Z,26.39
2017-04-19T04:39:18.312Z,26.35
2017-04-19T04:40:18.463Z,26.36
2017-04-19T04:41:18.464Z,26.4
2017-04-19T04:42:18.209Z,26.4
2017-04-19T04:43:18.528Z,26.37
2017-04-19T04:44:18.484Z,26.37
2017-04-19T04:45:18.542Z,26.3
2017-04-19T04:46:18.502Z,26.44
2017-04-19T04:47:18.505Z,26.45
2017-04-19T04:48:18.566Z,26.4
2017-04-19T04:49:18.208Z,26.43
2017-04-19T04:50:18.529Z,26.45
2017-04-19T04:51:18.221Z,26.48
2017-04-19T04:52:18.543Z,26.44
2017-04-19T04:53:18.237Z,26.44
2017-04-19T04:54:18.554Z,26.45
2017-04-19T04:55:18.612Z,26.45
2017-04-19T04:56:18.572Z,26.4
2017-04-19T04:57:18.581Z,26.44
2017-04-19T04:58:18.318Z,26.39
2017-04-19T04:59:18.278Z,26.37
2017-04-19T05:00:18.601Z,26.44
2017-04-19T05:01:18.607Z,26.4
2017-04-19T05:02:18.664Z,26.37
2017-04-19T05:03:18.358Z,26.44
2017-04-19T05:04:18.626Z,26.48
2017-04-19T05:05:18.637Z,26.48
2017-04-19T05:06:18.643Z,26.48
2017-04-19T05:07:18.418Z,26.4
2017-04-19T05:08:18.706Z,26.45
2017-04-19T05:09:18.666Z,26.43
2017-04-19T05:10:18.359Z,26.44
2017-04-19T05:11:18.779Z,26.4
2017-04-19T05:12:18.060Z,26.47
2017-04-19T05:13:18.715Z,26.44
2017-04-19T05:14:18.703Z,26.51
2017-04-19T05:15:18.708Z,26.48
2017-04-19T05:16:18.717Z,26.5
2017-04-19T05:17:18.772Z,26.52
2017-04-19T05:18:18.858Z,26.69
2017-04-19T05:19:18.739Z,26.77
2017-04-19T05:20:20.101Z,26.85
2017-04-19T05:21:18.779Z,26.76
2017-04-19T05:22:18.765Z,26.82
2017-04-19T05:23:18.460Z,26.92
2017-04-19T05:24:18.462Z,26.92
2017-04-19T05:25:18.920Z,26.95
2017-04-19T05:26:18.893Z,27.04
2017-04-19T05:27:18.489Z,27.02
2017-04-19T05:28:18.808Z,27.1
2017-04-19T05:29:18.866Z,27.02
2017-04-19T05:30:18.824Z,27.13
2017-04-19T05:31:18.834Z,27.07
2017-04-19T05:32:18.839Z,27.12
2017-04-19T05:33:18.847Z,27.07
2017-04-19T05:34:19.043Z,27.12
2017-04-19T05:35:18.239Z,26.97
2017-04-19T05:36:18.248Z,27.12
2017-04-19T05:37:18.887Z,26.97
2017-04-19T05:38:18.940Z,26.94
2017-04-19T05:39:18.585Z,27.02
2017-04-19T05:40:18.904Z,27.07
2017-04-19T05:41:18.912Z,27.09
2017-04-19T05:42:18.604Z,27.09
2017-04-19T05:43:18.936Z,27.13
2017-04-19T05:44:18.937Z,27.17
2017-04-19T05:45:18.993Z,27.06
2017-04-19T05:46:18.952Z,27.12
2017-04-19T05:47:18.970Z,27.27
2017-04-19T05:48:19.018Z,27.27
2017-04-19T05:49:18.975Z,27.25
2017-04-19T05:50:19.036Z,27.28
2017-04-19T05:51:18.680Z,27.32
2017-04-19T05:52:19.006Z,27.43
2017-04-19T05:53:19.058Z,27.32
2017-04-19T05:54:19.017Z,27.28
2017-04-19T05:55:18.715Z,27.12
2017-04-19T05:56:19.037Z,27.25
2017-04-19T05:57:18.724Z,27.36
2017-04-19T05:58:18.741Z,27.32
2017-04-19T05:59:18.439Z,27.34
2017-04-19T06:00:19.069Z,27.27
2017-04-19T06:01:18.764Z,27.31
2017-04-19T06:02:19.081Z,27.31
2017-04-19T06:03:19.094Z,27.22
2017-04-19T06:04:19.102Z,27.32
2017-04-19T06:05:19.158Z,27.37
2017-04-19T06:06:19.168Z,27.31
2017-04-19T06:07:18.809Z,27.39
2017-04-19T06:08:19.183Z,27.39
2017-04-19T06:09:19.176Z,27.41
2017-04-19T06:10:19.148Z,27.7
2017-04-19T06:11:19.158Z,27.82
2017-04-19T06:12:19.164Z,27.82
2017-04-19T06:13:19.221Z,28
2017-04-19T06:14:18.917Z,28.09
2017-04-19T06:15:18.615Z,28.49
2017-04-19T06:16:19.272Z,28.41
2017-04-19T06:17:19.207Z,28.61
2017-04-19T06:18:18.899Z,28.71
2017-04-19T06:19:19.271Z,29.15
2017-04-19T06:20:19.229Z,29.61
2017-04-19T06:21:19.240Z,30.17
2017-04-19T06:22:19.295Z,30.55
2017-04-19T06:23:18.948Z,30.49
2017-04-19T06:24:19.264Z,30.07
2017-04-19T06:25:19.323Z,30.11
2017-04-19T06:26:19.284Z,30.76
2017-04-19T06:27:19.338Z,31.21
2017-04-19T06:28:18.986Z,32.06
2017-04-19T06:29:19.042Z,32.29
2017-04-19T06:30:19.054Z,32.13
2017-04-19T06:31:19.374Z,31.99
2017-04-19T06:32:19.336Z,32.04
2017-04-19T06:33:19.343Z,32.88
2017-04-19T06:34:19.037Z,33.41
2017-04-19T06:35:19.545Z,33.87
2017-04-19T06:36:18.796Z,34.08
2017-04-19T06:37:19.377Z,34.44
2017-04-19T06:38:19.491Z,34.53
2017-04-19T06:39:19.448Z,34.77
2017-04-19T06:40:19.507Z,34.84
2017-04-19T06:41:19.472Z,35.03
2017-04-19T06:42:19.171Z,35.25
2017-04-19T06:43:19.493Z,35.19
2017-04-19T06:44:19.188Z,35.28
2017-04-19T06:45:19.488Z,35.36
2017-04-19T06:46:19.471Z,35.48
2017-04-19T06:47:19.313Z,35.6
2017-04-19T06:48:19.176Z,35.65
2017-04-19T06:49:19.186Z,35.59
2017-04-19T06:50:19.512Z,35.71
2017-04-19T06:51:19.522Z,35.94
2017-04-19T06:52:19.529Z,35.99
2017-04-19T06:53:19.538Z,36.32
2017-04-19T06:54:19.558Z,36.29
2017-04-19T06:55:19.612Z,36.2
2017-04-19T06:56:19.264Z,36.15
2017-04-19T06:57:19.680Z,35.53
2017-04-19T06:58:19.613Z,34.21
2017-04-19T06:59:19.285Z,34.19
2017-04-19T07:00:19.661Z,34.02
2017-04-19T07:01:19.673Z,34.08
2017-04-19T07:02:19.314Z,33.51
2017-04-19T07:03:19.686Z,32.59
2017-04-19T07:04:20.332Z,32.01
2017-04-19T07:05:19.592Z,30.51
2017-04-19T07:06:19.657Z,28.56
2017-04-19T07:07:19.450Z,27.7
2017-04-19T07:08:19.411Z,27.32
2017-04-19T07:09:19.677Z,27.07
2017-04-19T07:10:19.377Z,26.69
2017-04-19T07:11:19.428Z,26.82
2017-04-19T07:12:19.695Z,26.69
2017-04-19T07:13:19.751Z,26.29
2017-04-19T07:14:19.081Z,26.3
2017-04-19T07:15:19.716Z,25.99
2017-04-19T07:16:19.799Z,25.76
2017-04-19T07:17:19.462Z,25.7
2017-04-19T07:18:20.679Z,25.67
2017-04-19T07:19:19.419Z,25.9
2017-04-19T07:20:19.421Z,25.87
2017-04-19T07:21:19.791Z,25.92
2017-04-19T07:22:19.799Z,25.2
2017-04-19T07:23:19.803Z,25.24
2017-04-19T07:24:19.442Z,25.25
2017-04-19T07:25:19.757Z,25.32
2017-04-19T07:26:19.449Z,24.69
2017-04-19T07:27:19.505Z,24.96
2017-04-19T07:28:19.778Z,25.18
2017-04-19T07:29:19.829Z,25.14
2017-04-19T07:30:20.075Z,25.58
2017-04-19T07:31:19.529Z,25.72
2017-04-19T07:32:19.710Z,25.62
2017-04-19T07:33:19.171Z,25.76
2017-04-19T07:34:19.846Z,25.45
2017-04-19T07:35:19.228Z,25.87
2017-04-19T07:36:19.907Z,26.13
2017-04-19T07:37:19.896Z,26.12
2017-04-19T07:38:19.865Z,26.33
2017-04-19T07:39:19.824Z,26.72
2017-04-19T07:40:19.826Z,26.47
2017-04-19T07:41:19.829Z,26.54
2017-04-19T07:42:19.835Z,26.92
2017-04-19T07:43:19.524Z,26.82
2017-04-19T07:44:19.891Z,26.97
2017-04-19T07:45:19.947Z,27.06
2017-04-19T07:46:19.852Z,27.14
2017-04-19T07:47:19.856Z,27.4
2017-04-19T07:48:19.861Z,27.4
2017-04-19T07:49:19.919Z,27.41
2017-04-19T07:50:19.873Z,27.32
2017-04-19T07:51:19.568Z,27.12
2017-04-19T07:52:19.670Z,27.5
2017-04-19T07:53:19.628Z,27.39
2017-04-19T07:54:19.891Z,27.43
2017-04-19T07:55:19.956Z,27.28
2017-04-19T07:56:19.593Z,27.12
2017-04-19T07:57:19.958Z,27.28
2017-04-19T07:58:19.917Z,26.99
2017-04-19T07:59:19.921Z,26.87
2017-04-19T08:00:19.923Z,27.27
2017-04-19T08:01:19.617Z,27.13
2017-04-19T08:02:19.936Z,27.43
2017-04-19T08:03:19.936Z,27.4
2017-04-19T08:04:19.631Z,27.37
2017-04-19T08:05:19.634Z,27.37
2017-04-19T08:06:19.640Z,27.36
2017-04-19T08:07:19.646Z,27.46
2017-04-19T08:08:19.648Z,27.37
2017-04-19T08:09:19.656Z,27.43
2017-04-19T08:10:19.730Z,27.43
2017-04-19T08:11:19.400Z,27.39
2017-04-19T08:12:19.715Z,27.22
2017-04-19T08:13:19.671Z,27.17
2017-04-19T08:14:19.780Z,26.97
2017-04-19T08:15:19.686Z,26.92
2017-04-19T08:16:19.685Z,27.12
2017-04-19T08:17:19.696Z,27.04
2017-04-19T08:18:20.007Z,27.12
2017-04-19T08:19:20.011Z,27.17
2017-04-19T08:20:20.216Z,27.4
2017-04-19T08:21:19.759Z,27.04
2017-04-19T08:22:20.080Z,27.12
2017-04-19T08:23:19.716Z,27.41
2017-04-19T08:24:19.722Z,27.47
2017-04-19T08:25:19.731Z,27.4
2017-04-19T08:26:19.424Z,27.27
2017-04-19T08:27:20.103Z,27.03
2017-04-19T08:28:19.744Z,27.07
2017-04-19T08:29:20.065Z,26.8
2017-04-19T08:30:20.072Z,26.87
2017-04-19T08:31:19.763Z,27
2017-04-19T08:32:19.766Z,26.85
2017-04-19T08:33:19.821Z,27.06
2017-04-19T08:34:20.090Z,27.07
2017-04-19T08:35:20.142Z,26.92
2017-04-19T08:36:19.791Z,26.82
2017-04-19T08:37:19.483Z,26.72
2017-04-19T08:38:19.850Z,26.65
2017-04-19T08:39:20.113Z,26.75
2017-04-19T08:40:19.808Z,26.76
2017-04-19T08:41:20.123Z,26.92
2017-04-19T08:42:19.916Z,26.88
2017-04-19T08:43:20.136Z,27.14
2017-04-19T08:44:19.881Z,26.91
2017-04-19T08:45:20.191Z,27.02
2017-04-19T08:46:19.840Z,26.84
2017-04-19T08:47:20.206Z,26.85
2017-04-19T08:48:19.974Z,26.77
2017-04-19T08:49:19.854Z,26.76
2017-04-19T08:50:20.271Z,26.67
2017-04-19T08:51:19.862Z,26.87
2017-04-19T08:52:19.865Z,26.84
2017-04-19T08:53:19.921Z,26.69
2017-04-19T08:54:19.610Z,26.58
2017-04-19T08:55:20.244Z,26.47
2017-04-19T08:56:20.196Z,26.37
2017-04-19T08:57:19.894Z,26.33
2017-04-19T08:58:20.222Z,26.84
2017-04-19T08:59:19.947Z,26.87
2017-04-19T09:00:20.270Z,26.8
2017-04-19T09:01:20.224Z,26.87
2017-04-19T09:02:19.914Z,26.85
2017-04-19T09:03:19.608Z,26.91
2017-04-19T09:04:20.245Z,26.81
2017-04-19T09:05:20.249Z,26.73
2017-04-19T09:06:19.941Z,26.85
2017-04-19T09:07:19.942Z,26.89
2017-04-19T09:08:20.006Z,26.88
2017-04-19T09:09:20.269Z,26.67
2017-04-19T09:10:19.966Z,26.47
2017-04-19T09:11:20.328Z,26.18
2017-04-19T09:12:20.333Z,26.51
2017-04-19T09:13:19.762Z,26.54
2017-04-19T09:14:20.081Z,26.69
2017-04-19T09:15:20.035Z,26.51
2017-04-19T09:16:19.724Z,26.75
2017-04-19T09:17:20.304Z,26.54
2017-04-19T09:18:20.000Z,26.81
2017-04-19T09:19:20.050Z,26.81
2017-04-19T09:20:20.010Z,26.85
2017-04-19T09:21:20.569Z,26.85
2017-04-19T09:22:20.022Z,26.69
2017-04-19T09:23:20.337Z,26.99
2017-04-19T09:24:20.346Z,27.31
2017-04-19T09:25:20.035Z,27.14
2017-04-19T09:26:20.442Z,27.27
2017-04-19T09:27:20.362Z,27.27
2017-04-19T09:28:20.369Z,27.5
2017-04-19T09:29:20.105Z,27.27
2017-04-19T09:30:20.370Z,27.46
2017-04-19T09:31:20.478Z,27.07
2017-04-19T09:32:20.065Z,26.52
2017-04-19T09:33:20.066Z,27.04
2017-04-19T09:34:20.119Z,26.72
2017-04-19T09:35:20.386Z,27.1
2017-04-19T09:36:21.339Z,26.8
2017-04-19T09:37:20.388Z,27.29
2017-04-19T09:38:20.439Z,27.47
2017-04-19T09:39:20.394Z,27.4
2017-04-19T09:40:20.134Z,27.1
2017-04-19T09:41:20.403Z,27.25
2017-04-19T09:42:20.404Z,27.28
2017-04-19T09:43:20.458Z,26.76
2017-04-19T09:44:20.411Z,26.7
2017-04-19T09:45:20.465Z,26.69
2017-04-19T09:46:19.790Z,26.87
2017-04-19T09:47:19.796Z,26.7
2017-04-19T09:48:20.110Z,26.57
2017-04-19T09:49:20.479Z,27.04
2017-04-19T09:50:20.118Z,27.39
2017-04-19T09:51:20.433Z,27.65
2017-04-19T09:52:20.174Z,27.7
2017-04-19T09:53:20.489Z,27.75
2017-04-19T09:54:20.149Z,28.03
2017-04-19T09:55:20.448Z,27.99
2017-04-19T09:56:20.457Z,27.37
2017-04-19T09:57:20.301Z,27.66
2017-04-19T09:58:20.248Z,27.93
2017-04-19T09:59:20.206Z,27.66
2017-04-19T10:00:20.470Z,27.92
2017-04-19T10:01:20.164Z,27.55
2017-04-19T10:02:21.647Z,27.07
2017-04-19T10:03:20.486Z,26.15
2017-04-19T10:04:20.543Z,27.04
2017-04-19T10:05:20.232Z,27.17
2017-04-19T10:06:20.230Z,27.18
2017-04-19T10:07:20.499Z,27.27
2017-04-19T10:08:20.186Z,27.02
2017-04-19T10:09:20.205Z,27.02
2017-04-19T10:10:20.194Z,27.37
2017-04-19T10:11:20.250Z,27.28
2017-04-19T10:12:20.511Z,27.12
2017-04-19T10:13:20.511Z,27.25
2017-04-19T10:14:20.621Z,27.14
2017-04-19T10:15:20.293Z,27.28
2017-04-19T10:16:20.211Z,27.27
2017-04-19T10:17:20.641Z,26.3
2017-04-19T10:18:20.270Z,26.82
2017-04-19T10:19:20.537Z,27.19
2017-04-19T10:20:19.926Z,27.55
2017-04-19T10:21:20.856Z,27.29
2017-04-19T10:22:20.650Z,27.07
2017-04-19T10:23:20.555Z,26.87
2017-04-19T10:24:20.241Z,27.12
2017-04-19T10:25:20.605Z,26.77
2017-04-19T10:26:20.256Z,26.54
2017-04-19T10:27:20.252Z,26.67
2017-04-19T10:28:20.252Z,26.21
2017-04-19T10:29:20.315Z,26.37
2017-04-19T10:30:20.263Z,27.36
2017-04-19T10:31:20.259Z,27.37
2017-04-19T10:32:20.264Z,27.29
2017-04-19T10:33:20.582Z,27.43
2017-04-19T10:34:20.585Z,26.63
2017-04-19T10:35:20.587Z,26.91
2017-04-19T10:36:20.977Z,26.52
2017-04-19T10:37:20.592Z,26.82
2017-04-19T10:38:20.287Z,26.94
2017-04-19T10:39:20.681Z,26.94
2017-04-19T10:40:20.598Z,27.28
2017-04-19T10:41:20.693Z,27.18
2017-04-19T10:42:20.608Z,27.5
2017-04-19T10:43:20.607Z,27.24
2017-04-19T10:44:20.636Z,27.51
2017-04-19T10:45:19.989Z,27.63
2017-04-19T10:46:19.991Z,27.14
2017-04-19T10:47:20.671Z,27.13
2017-04-19T10:48:21.743Z,26.82
2017-04-19T10:49:20.315Z,27.1
2017-04-19T10:50:20.636Z,26.81
2017-04-19T10:51:20.686Z,27.06
2017-04-19T10:52:20.328Z,26.99
2017-04-19T10:53:20.641Z,26.67
2017-04-19T10:54:20.694Z,26.92
2017-04-19T10:55:20.652Z,26.55
2017-04-19T10:56:20.755Z,27.55
2017-04-19T10:57:20.339Z,27.27
2017-04-19T10:58:20.649Z,26.91
2017-04-19T10:59:20.659Z,27.1
2017-04-19T11:00:20.670Z,26.91
2017-04-19T11:01:20.402Z,27.09
2017-04-19T11:02:20.722Z,27.36
2017-04-19T11:03:20.677Z,26.67
2017-04-19T11:04:20.410Z,27.1
2017-04-19T11:05:20.684Z,27.43
2017-04-19T11:06:20.737Z,27.63
2017-04-19T11:07:20.683Z,26.87
2017-04-19T11:08:20.755Z,27.32
2017-04-19T11:09:20.695Z,27.39
2017-04-19T11:10:20.382Z,26.81
2017-04-19T11:11:20.753Z,27.09
2017-04-19T11:12:20.078Z,27.04
2017-04-19T11:13:20.708Z,27.09
2017-04-19T11:14:20.389Z,26.87
2017-04-19T11:15:20.758Z,27.25
2017-04-19T11:16:20.391Z,27.51
2017-04-19T11:17:20.093Z,27.5
2017-04-19T11:18:20.710Z,27.24
2017-04-19T11:19:20.714Z,26.85
2017-04-19T11:20:20.414Z,26.52
2017-04-19T11:21:20.467Z,26.5
2017-04-19T11:22:20.775Z,26.5
2017-04-19T11:23:20.473Z,26.77
2017-04-19T11:24:20.410Z,27.12
2017-04-19T11:25:20.790Z,27.37
2017-04-19T11:26:20.751Z,27.13
2017-04-19T11:27:20.478Z,27.09
2017-04-19T11:28:20.482Z,27.1
2017-04-19T11:29:20.121Z,27.44
2017-04-19T11:30:20.760Z,26.69
2017-04-19T11:31:20.495Z,26.63
2017-04-19T11:32:20.759Z,27.09
2017-04-19T11:33:20.760Z,26.47
2017-04-19T11:34:20.765Z,26.51
2017-04-19T11:35:20.762Z,26.92
2017-04-19T11:36:20.508Z,27.21
2017-04-19T11:37:20.464Z,26.85
2017-04-19T11:38:20.776Z,27.13
2017-04-19T11:39:20.194Z,27.27
2017-04-19T11:40:20.785Z,27.39
2017-04-19T11:41:20.887Z,27.65
2017-04-19T11:42:20.793Z,27.12
2017-04-19T11:43:20.799Z,27.12
2017-04-19T11:44:20.797Z,27.34
2017-04-19T11:45:20.801Z,27.51
2017-04-19T11:46:20.539Z,27.27
2017-04-19T11:47:20.497Z,27.51
2017-04-19T11:48:20.626Z,27.54
2017-04-19T11:49:20.876Z,27.54
2017-04-19T11:50:20.829Z,27.39
2017-04-19T11:51:20.891Z,27.77
2017-04-19T11:52:20.521Z,27.49
2017-04-19T11:53:20.909Z,27.17
2017-04-19T11:54:20.841Z,26.95
2017-04-19T11:55:20.897Z,27.06
2017-04-19T11:56:21.055Z,27.22
2017-04-19T11:57:20.594Z,27.02
2017-04-19T11:58:20.855Z,26.91
2017-04-19T11:59:20.541Z,27.12
2017-04-19T12:00:20.861Z,26.88
2017-04-19T12:01:20.862Z,26.89
2017-04-19T12:02:20.862Z,26.45
2017-04-19T12:03:20.556Z,26.02
2017-04-19T12:04:20.292Z,25.87
2017-04-19T12:05:20.659Z,26.13
2017-04-19T12:06:20.874Z,26.57
2017-04-19T12:07:20.926Z,26.76
2017-04-19T12:08:20.929Z,26.47
2017-04-19T12:09:20.675Z,26.39
2017-04-19T12:10:20.596Z,26.85
2017-04-19T12:11:20.626Z,26.66
2017-04-19T12:12:20.889Z,26.76
2017-04-19T12:13:20.902Z,26.54
2017-04-19T12:14:20.580Z,27.07
2017-04-19T12:15:20.954Z,27.1
2017-04-19T12:16:20.906Z,26.47
2017-04-19T12:17:20.325Z,26.55
2017-04-19T12:18:20.653Z,26.18
2017-04-19T12:19:20.905Z,26.39
2017-04-19T12:20:20.283Z,26.85
2017-04-19T12:21:20.598Z,26.7
2017-04-19T12:22:20.605Z,26.76
2017-04-19T12:23:20.607Z,26.51
2017-04-19T12:24:20.920Z,27.25
2017-04-19T12:25:20.298Z,27.06
2017-04-19T12:26:20.614Z,27.34
2017-04-19T12:27:20.929Z,27.43
2017-04-19T12:28:20.934Z,27.04
2017-04-19T12:29:21.301Z,27.19
2017-04-19T12:30:20.992Z,27.51
2017-04-19T12:31:20.629Z,27.4
2017-04-19T12:32:20.635Z,27.41
2017-04-19T12:33:20.638Z,27.41
2017-04-19T12:34:20.328Z,27.09
2017-04-19T12:35:20.648Z,27.41
2017-04-19T12:36:20.757Z,26.91
2017-04-19T12:37:21.019Z,26.92
2017-04-19T12:38:20.658Z,26.99
2017-04-19T12:39:20.662Z,25.69
2017-04-19T12:40:21.075Z,26.06
2017-04-19T12:41:20.721Z,26.28
2017-04-19T12:42:20.739Z,26.3
2017-04-19T12:43:20.983Z,26.63
2017-04-19T12:44:21.037Z,26.54
2017-04-19T12:45:20.724Z,26.44
2017-04-19T12:46:20.734Z,26.54
2017-04-19T12:47:20.993Z,27.09
2017-04-19T12:48:21.049Z,26.88
2017-04-19T12:49:20.735Z,27.02
2017-04-19T12:50:20.694Z,27.14
2017-04-19T12:51:21.007Z,26.92
2017-04-19T12:52:21.030Z,26.33
2017-04-19T12:53:20.797Z,26.07
2017-04-19T12:54:20.750Z,26.23
2017-04-19T12:55:20.754Z,26.45